Time;durP1;ratioP1;P1;durP2;ratioP2;P2;SDS_P1;SDS_P2;PMS_P1;PMS_P2;Temp;Humidity;BMP_temperature;BMP_pressure;BME280_temperature;BME280_humidity;BME280_pressure;Samples;Min_cycle;Max_cycle;Signal;HPM_P1;HPM_P2
2021/05/20 00:01:43;;;;;;;7.13;1.65;;;;;;;14.67;100.00;93933.44;10446563;28;20271;-72
2021/05/20 00:06:43;;;;;;;8.73;2.10;;;;;;;14.69;100.00;93916.88;10444798;28;20025;-72
2021/05/20 00:11:44;;;;;;;6.57;2.40;;;;;;;14.25;100.00;93926.88;10446705;28;20421;-71
2021/05/20 00:16:44;;;;;;;5.40;1.97;;;;;;;13.46;100.00;93923.94;10446727;28;20702;-71
2021/05/20 00:21:45;;;;;;;9.68;2.40;;;;;;;13.17;100.00;93938.66;10445988;28;20388;-72
2021/05/20 00:26:45;;;;;;;6.57;2.50;;;;;;;12.90;100.00;93935.03;10446268;28;20144;-72
2021/05/20 00:31:45;;;;;;;9.97;2.70;;;;;;;12.92;100.00;93938.22;10446645;28;20301;-71
2021/05/20 00:36:46;;;;;;;5.77;2.90;;;;;;;13.05;100.00;93931.16;10446641;28;20287;-71
2021/05/20 00:41:46;;;;;;;4.37;2.40;;;;;;;12.99;100.00;93924.28;10447215;28;20029;-71
2021/05/20 00:46:46;;;;;;;7.33;2.53;;;;;;;12.88;100.00;93922.94;10434737;28;20014;-72
2021/05/20 00:51:47;;;;;;;7.40;2.97;;;;;;;12.70;100.00;93922.03;10404910;28;20115;-72
2021/05/20 00:56:47;;;;;;;9.33;2.73;;;;;;;12.69;100.00;93934.72;10413543;28;20033;-71
2021/05/20 01:01:48;;;;;;;10.07;3.42;;;;;;;12.62;100.00;93929.75;10407052;28;20034;-71
2021/05/20 01:06:48;;;;;;;7.80;3.53;;;;;;;12.54;100.00;93916.22;10402614;28;20396;-71
2021/05/20 01:11:48;;;;;;;9.55;3.50;;;;;;;12.56;100.00;93919.38;10402048;28;20291;-71
2021/05/20 01:16:49;;;;;;;7.97;2.42;;;;;;;12.52;100.00;93916.53;10402706;28;20574;-72
2021/05/20 01:21:49;;;;;;;14.37;3.50;;;;;;;12.50;100.00;93909.84;10404328;28;20041;-71
2021/05/20 01:26:50;;;;;;;9.17;2.77;;;;;;;12.39;100.00;93907.38;10404290;28;20045;-72
2021/05/20 01:31:50;;;;;;;7.45;4.18;;;;;;;12.00;100.00;93906.09;10404327;28;20037;-71
2021/05/20 01:36:51;;;;;;;8.20;3.20;;;;;;;11.99;100.00;93898.28;10402454;28;20030;-72
2021/05/20 01:41:51;;;;;;;15.77;3.80;;;;;;;12.09;100.00;93869.25;10401722;28;20062;-72
2021/05/20 01:46:52;;;;;;;12.40;3.65;;;;;;;12.00;100.00;93871.09;10402905;28;20326;-72
2021/05/20 01:51:52;;;;;;;11.48;3.15;;;;;;;11.76;100.00;93874.78;10444488;28;20468;-71
2021/05/20 01:56:52;;;;;;;13.67;3.63;;;;;;;11.65;100.00;93864.53;10447181;28;20036;-71
2021/05/20 02:01:53;;;;;;;6.43;3.20;;;;;;;11.93;100.00;93854.50;10453185;28;20029;-71
2021/05/20 02:06:53;;;;;;;8.73;3.37;;;;;;;12.06;100.00;93852.91;10451731;28;20028;-71
2021/05/20 02:11:54;;;;;;;6.07;3.08;;;;;;;12.11;100.00;93856.28;10452953;28;20025;-71
2021/05/20 02:16:54;;;;;;;6.85;2.88;;;;;;;12.07;100.00;93849.91;10452890;28;20029;-71
2021/05/20 02:21:54;;;;;;;4.80;3.07;;;;;;;11.93;100.00;93846.41;10451772;28;20028;-71
2021/05/20 02:26:55;;;;;;;4.40;3.13;;;;;;;11.74;100.00;93852.75;10452401;28;20131;-71
2021/05/20 02:31:56;;;;;;;9.83;3.70;;;;;;;11.78;100.00;93837.59;10452228;28;20035;-71
2021/05/20 02:36:56;;;;;;;11.25;3.60;;;;;;;11.91;100.00;93832.47;10451079;28;20144;-72
2021/05/20 02:41:57;;;;;;;10.45;3.30;;;;;;;11.91;100.00;93829.78;10444768;28;20039;-77
2021/05/20 02:46:57;;;;;;;9.23;3.37;;;;;;;11.97;100.00;93831.28;10343579;28;20022;-77
2021/05/20 02:51:58;;;;;;;6.80;3.05;;;;;;;11.91;100.00;93819.00;10408042;28;20029;-77
2021/05/20 02:56:58;;;;;;;9.80;3.70;;;;;;;12.00;100.00;93838.78;10352452;28;20041;-78
2021/05/20 03:02:07;;;;;;;11.30;3.08;;;;;;;11.86;100.00;93833.41;10405579;28;20276;-77
2021/05/20 03:07:07;;;;;;;7.60;3.17;;;;;;;11.92;100.00;93836.78;10338346;28;20025;-79
2021/05/20 03:12:08;;;;;;;8.02;4.03;;;;;;;11.85;100.00;93852.53;10408282;28;20036;-77
2021/05/20 03:17:12;;;;;;;12.23;4.40;;;;;;;11.93;100.00;93859.88;10412348;28;20021;-81
2021/05/20 03:22:12;;;;;;;9.50;3.90;;;;;;;11.89;100.00;93857.00;10431756;28;20028;-81
2021/05/20 03:27:12;;;;;;;8.93;3.80;;;;;;;11.80;100.00;93878.47;10436086;28;20413;-81
2021/05/20 03:32:13;;;;;;;8.77;4.30;;;;;;;11.54;100.00;93901.59;10415313;28;20507;-81
2021/05/20 03:37:13;;;;;;;11.80;6.13;;;;;;;11.22;100.00;93925.63;10411532;28;20041;-77
2021/05/20 03:42:13;;;;;;;15.63;6.53;;;;;;;11.04;100.00;93937.25;10417349;28;20357;-81
2021/05/20 03:47:14;;;;;;;12.53;7.50;;;;;;;11.07;100.00;93942.81;10448871;28;20024;-80
2021/05/20 03:52:14;;;;;;;15.70;6.80;;;;;;;11.06;100.00;93951.19;10449845;28;20024;-81
2021/05/20 03:57:14;;;;;;;11.60;8.40;;;;;;;11.09;100.00;93972.09;10446443;28;20040;-80
2021/05/20 04:02:15;;;;;;;16.87;8.20;;;;;;;10.96;100.00;93959.44;10445019;28;20021;-81
2021/05/20 04:07:15;;;;;;;14.90;10.25;;;;;;;11.10;100.00;93971.78;10449016;28;20279;-81
2021/05/20 04:12:16;;;;;;;11.87;6.40;;;;;;;11.21;100.00;93977.03;10445273;28;20029;-81
2021/05/20 04:17:16;;;;;;;8.27;5.63;;;;;;;11.32;100.00;93964.97;10445159;28;20017;-81
2021/05/20 04:22:16;;;;;;;8.27;6.57;;;;;;;11.37;100.00;93958.69;10442502;28;20051;-80
2021/05/20 04:27:17;;;;;;;11.35;6.95;;;;;;;11.47;100.00;93961.22;10443687;28;20033;-81
2021/05/20 04:32:17;;;;;;;9.87;7.90;;;;;;;11.60;100.00;93954.25;10448500;28;20049;-81
2021/05/20 04:37:18;;;;;;;8.45;6.75;;;;;;;11.90;100.00;93952.03;10449510;28;20287;-81
2021/05/20 04:42:18;;;;;;;11.70;7.00;;;;;;;12.48;100.00;93962.13;10445657;28;20395;-77
2021/05/20 04:47:18;;;;;;;5.40;4.90;;;;;;;12.59;100.00;93961.91;10443056;28;20472;-77
2021/05/20 04:52:19;;;;;;;6.57;4.40;;;;;;;12.22;100.00;93956.50;10443259;28;20036;-77
2021/05/20 04:57:19;;;;;;;5.82;4.75;;;;;;;12.26;100.00;93951.31;10443356;28;20017;-76
2021/05/20 05:02:20;;;;;;;4.13;3.80;;;;;;;12.20;100.00;93942.56;10444503;28;20020;-76
2021/05/20 05:07:20;;;;;;;6.77;4.37;;;;;;;12.21;100.00;93944.16;10444123;28;20032;-77
2021/05/20 05:12:20;;;;;;;4.75;3.00;;;;;;;12.50;100.00;93942.97;10443755;28;20021;-76
2021/05/20 05:17:21;;;;;;;5.65;2.47;;;;;;;13.19;100.00;93938.38;10443319;28;20025;-76
2021/05/20 05:22:21;;;;;;;4.70;2.30;;;;;;;13.58;100.00;93929.53;10443525;28;20028;-75
2021/05/20 05:27:23;;;;;;;3.00;2.10;;;;;;;13.67;100.00;93929.56;10443903;28;20295;-76
2021/05/20 05:32:23;;;;;;;3.97;2.55;;;;;;;13.32;100.00;93938.28;10434350;28;20030;-76
2021/05/20 05:37:24;;;;;;;2.42;1.52;;;;;;;12.95;100.00;93932.22;10415743;28;20021;-77
2021/05/20 05:42:24;;;;;;;2.53;2.00;;;;;;;12.22;100.00;93948.44;10444181;28;20071;-77
2021/05/20 05:47:24;;;;;;;5.63;2.10;;;;;;;11.65;100.00;93956.03;10443485;28;20021;-77
2021/05/20 05:52:26;;;;;;;4.60;2.20;;;;;;;11.25;100.00;93986.09;10415346;28;20283;-77
2021/05/20 05:57:27;;;;;;;5.88;1.85;;;;;;;10.65;100.00;94002.91;10403115;28;20099;-77
2021/05/20 06:02:28;;;;;;;5.95;2.58;;;;;;;10.66;100.00;94020.63;10402675;28;20056;-77
2021/05/20 06:07:28;;;;;;;1.70;1.38;;;;;;;10.08;100.00;94035.84;10417259;28;20055;-78
2021/05/20 06:12:28;;;;;;;2.92;1.50;;;;;;;9.62;100.00;94060.50;10414570;28;20060;-77
2021/05/20 06:17:29;;;;;;;2.47;1.02;;;;;;;9.29;100.00;94082.50;10402771;28;20030;-77
2021/05/20 06:22:29;;;;;;;1.77;1.37;;;;;;;9.15;100.00;94079.66;10404484;28;20029;-75
2021/05/20 06:27:30;;;;;;;5.88;1.63;;;;;;;9.44;100.00;94064.69;10410062;28;20053;-77
2021/05/20 06:32:30;;;;;;;1.83;1.50;;;;;;;9.28;100.00;94067.53;10420558;28;20044;-77
2021/05/20 06:37:32;;;;;;;1.52;1.30;;;;;;;9.83;100.00;94074.53;10412725;28;20044;-79
2021/05/20 06:42:33;;;;;;;1.40;1.13;;;;;;;10.08;100.00;94084.19;10405610;28;20037;-77
2021/05/20 06:47:33;;;;;;;1.83;1.55;;;;;;;9.81;100.00;94065.94;10419229;28;20037;-78
2021/05/20 06:52:33;;;;;;;1.58;0.90;;;;;;;10.27;100.00;94076.97;10444115;28;20037;-79
2021/05/20 07:02:53;;;;;;;3.05;2.35;;;;;;;9.76;100.00;94072.16;10452573;28;20072;-78
2021/05/20 07:07:54;;;;;;;1.60;0.97;;;;;;;9.78;100.00;94078.03;10442879;28;20112;-79
2021/05/20 07:12:58;;;;;;;0.90;0.85;;;;;;;11.61;100.00;94066.97;10439940;28;20542;-78
2021/05/20 07:17:59;;;;;;;0.55;0.35;;;;;;;13.09;100.00;94040.03;10433015;28;20388;-79
2021/05/20 07:23:14;;;;;;;4.17;1.83;;;;;;;12.69;100.00;94031.78;10446246;28;20046;-79
2021/05/20 07:28:15;;;;;;;3.17;0.50;;;;;;;13.50;100.00;94033.66;10447634;28;20044;-79
2021/05/20 07:33:16;;;;;;;8.48;1.33;;;;;;;15.99;100.00;94033.38;10413191;28;20428;-81
2021/05/20 07:38:16;;;;;;;2.40;1.42;;;;;;;15.96;100.00;94025.91;10416121;28;20038;-79
2021/05/20 07:43:17;;;;;;;1.37;0.50;;;;;;;16.57;100.00;94029.09;10425569;28;20079;-79
2021/05/20 07:48:17;;;;;;;3.30;0.83;;;;;;;17.03;100.00;94023.88;10437424;28;20473;-78
2021/05/20 07:53:18;;;;;;;1.48;0.88;;;;;;;17.78;100.00;94038.56;10409882;28;20276;-79
2021/05/20 07:58:19;;;;;;;0.52;0.47;;;;;;;15.04;100.00;94055.66;10436742;28;20594;-79
2021/05/20 08:13:26;;;;;;;1.83;1.17;;;;;;;12.08;100.00;94099.31;10429785;28;20484;-80
2021/05/20 08:18:27;;;;;;;2.17;0.70;;;;;;;12.24;100.00;94110.56;10430224;28;20025;-79
2021/05/20 08:23:28;;;;;;;0.30;0.30;;;;;;;12.38;100.00;94115.97;10441825;28;20331;-78
2021/05/20 08:28:28;;;;;;;1.42;0.60;;;;;;;12.50;100.00;94099.28;10419331;28;20148;-79
2021/05/20 08:33:29;;;;;;;3.70;0.68;;;;;;;12.79;100.00;94114.34;10409376;28;20496;-78
2021/05/20 08:38:29;;;;;;;1.63;0.68;;;;;;;13.30;100.00;94109.72;10407832;28;20033;-78
2021/05/20 08:43:30;;;;;;;2.60;0.63;;;;;;;14.23;100.00;94119.03;10422472;28;20475;-78
2021/05/20 08:48:30;;;;;;;4.32;1.20;;;;;;;14.00;100.00;94116.41;10445508;28;20041;-78
2021/05/20 08:53:31;;;;;;;16.02;2.47;;;;;;;15.00;100.00;94124.25;10447121;28;20032;-78
2021/05/20 08:58:31;;;;;;;3.60;1.30;;;;;;;17.24;100.00;94124.34;10444658;28;20116;-78
2021/05/20 09:03:32;;;;;;;7.63;0.50;;;;;;;20.46;79.79;94117.00;10444654;28;20274;-78
2021/05/20 09:08:33;;;;;;;0.65;0.47;;;;;;;22.21;58.94;94097.78;10446184;28;20136;-79
2021/05/20 09:13:36;;;;;;;6.43;0.90;;;;;;;22.93;50.15;94091.59;10446860;28;20086;-78
2021/05/20 09:18:40;;;;;;;0.93;0.75;;;;;;;24.12;46.47;94095.16;10438918;28;20040;-79
2021/05/20 09:23:48;;;;;;;5.05;0.82;;;;;;;22.87;47.57;94104.00;10452773;28;20889;-78
2021/05/20 09:28:49;;;;;;;3.55;0.73;;;;;;;22.30;49.20;94093.66;10446469;28;20060;-79
2021/05/20 09:33:54;;;;;;;2.25;0.30;;;;;;;21.51;53.30;94089.38;10447128;28;20839;-80
2021/05/20 09:39:11;;;;;;;2.78;0.95;;;;;;;23.74;49.44;94084.09;10443085;28;20048;-79
2021/05/20 09:44:34;;;;;;;0.87;0.30;;;;;;;20.25;49.65;94083.72;10446587;28;20064;-79
2021/05/20 09:49:55;;;;;;;1.45;0.40;;;;;;;20.09;64.88;94089.13;10437438;28;20021;-79
2021/05/20 09:54:56;;;;;;;2.85;0.50;;;;;;;22.10;54.67;94078.44;10436241;28;20500;-79
2021/05/20 10:00:16;;;;;;;1.67;0.73;;;;;;;22.07;48.34;94087.38;10415900;28;20136;-79
2021/05/20 10:05:24;;;;;;;6.90;0.85;;;;;;;19.76;54.19;94076.56;10412191;28;20455;-79
2021/05/20 10:10:25;;;;;;;2.13;1.17;;;;;;;19.06;64.66;94089.38;10445391;28;20052;-79
2021/05/20 10:15:25;;;;;;;2.15;1.50;;;;;;;17.45;75.62;94085.53;10446408;28;20412;-79
2021/05/20 10:20:25;;;;;;;2.07;1.27;;;;;;;19.19;75.11;94078.44;10452539;28;20033;-79
2021/05/20 10:25:27;;;;;;;1.97;1.17;;;;;;;19.33;67.15;94081.59;10454398;28;20095;-79
2021/05/20 10:30:28;;;;;;;0.90;0.47;;;;;;;18.83;73.32;94077.34;10454857;28;20044;-79
2021/05/20 10:35:58;;;;;;;1.70;0.77;;;;;;;23.12;54.73;94065.25;10453179;28;20032;-79
2021/05/20 10:41:12;;;;;;;0.70;0.60;;;;;;;24.08;41.57;94073.16;10445705;28;20119;-79
2021/05/20 10:46:16;;;;;;;2.30;0.90;;;;;;;26.46;41.16;94054.56;10453339;28;20125;-79
2021/05/20 10:51:21;;;;;;;2.63;0.77;;;;;;;24.39;41.65;94058.16;10453058;28;20033;-80
2021/05/20 10:56:21;;;;;;;1.27;0.93;;;;;;;19.75;49.24;94064.06;10453369;28;20111;-80
2021/05/20 11:01:25;;;;;;;1.10;1.00;;;;;;;17.73;61.93;94065.94;10454248;28;20106;-79
2021/05/20 11:06:37;;;;;;;2.72;1.42;;;;;;;17.70;76.57;94051.09;10454146;28;20044;-79
2021/05/20 11:11:38;;;;;;;1.20;1.02;;;;;;;17.25;74.07;94054.56;10453347;28;20033;-79
2021/05/20 11:16:40;;;;;;;3.47;1.93;;;;;;;17.48;83.48;94044.09;10453225;28;20033;-79
2021/05/20 11:21:58;;;;;;;5.38;2.05;;;;;;;18.38;80.76;94032.78;10452257;28;20067;-79
2021/05/20 11:27:04;;;;;;;10.07;2.38;;;;;;;18.37;76.31;94026.53;10452230;28;20056;-79
2021/05/20 11:32:23;;;;;;;6.65;2.00;;;;;;;18.49;73.84;94017.59;10451024;28;20043;-79
2021/05/20 11:37:29;;;;;;;3.50;1.60;;;;;;;17.98;75.70;94022.53;10451964;28;20229;-79
2021/05/20 11:42:32;;;;;;;2.88;1.90;;;;;;;18.36;78.97;94016.78;10449012;28;20029;-79
2021/05/20 11:47:32;;;;;;;1.85;1.65;;;;;;;18.64;73.33;94020.75;10439468;28;20075;-79
2021/05/20 11:52:34;;;;;;;3.60;1.65;;;;;;;18.83;62.25;94020.16;10434778;28;20031;-79
2021/05/20 11:57:35;;;;;;;2.65;1.30;;;;;;;18.83;65.27;94015.50;10410236;28;20448;-78
2021/05/20 12:02:36;;;;;;;9.13;2.17;;;;;;;19.12;75.61;94014.44;10412323;28;20033;-78
2021/05/20 12:07:39;;;;;;;1.92;1.20;;;;;;;18.37;64.64;94010.22;10408947;28;20021;-79
2021/05/20 12:12:46;;;;;;;3.58;1.42;;;;;;;17.42;72.36;94004.72;10410549;28;20475;-79
2021/05/20 12:17:47;;;;;;;1.65;1.55;;;;;;;17.70;76.72;94002.19;10408061;28;20022;-78
2021/05/20 12:22:49;;;;;;;2.00;1.80;;;;;;;17.57;81.27;94004.06;10441600;28;20037;-78
2021/05/20 12:27:56;;;;;;;1.88;1.52;;;;;;;16.52;97.98;94013.03;10449005;28;20083;-80
2021/05/20 12:33:02;;;;;;;1.60;1.33;;;;;;;15.99;100.00;94017.94;10410452;28;20499;-78
2021/05/20 12:38:13;;;;;;;4.15;1.77;;;;;;;16.21;100.00;94025.00;10407476;28;20120;-78
2021/05/20 12:43:14;;;;;;;6.35;2.38;;;;;;;16.55;100.00;94017.03;10441643;28;20090;-79
2021/05/20 12:48:33;;;;;;;2.22;1.40;;;;;;;16.65;95.46;94019.34;10448353;28;20048;-79
2021/05/20 12:53:40;;;;;;;1.88;1.70;;;;;;;16.28;100.00;94029.91;10446422;28;20028;-78
2021/05/20 12:59:00;;;;;;;7.13;2.75;;;;;;;16.84;99.01;94026.22;10448841;28;20024;-78
2021/05/20 13:04:32;;;;;;;2.28;1.88;;;;;;;17.21;90.48;94021.81;10441831;28;20110;-78
2021/05/20 13:09:41;;;;;;;3.00;1.55;;;;;;;17.77;79.10;94020.66;10446754;28;20472;-79
2021/05/20 13:15:10;;;;;;;4.65;3.45;;;;;;;18.34;83.62;94002.75;10436668;28;20127;-80
2021/05/20 13:22:12;;;;;;;2.60;1.10;;;;;;;18.19;72.29;94004.19;10435194;28;20037;-81
2021/05/20 13:25:35;;;;;;;3.22;1.20;;;;;;;17.83;99.41;94008.44;10409375;28;20117;-80
2021/05/20 13:30:41;;;;;;;1.38;1.27;;;;;;;17.48;99.78;94008.00;10407566;28;20032;-80
2021/05/20 13:35:41;;;;;;;1.20;1.10;;;;;;;17.46;85.31;94002.91;10420904;28;20074;-80
2021/05/20 13:40:44;;;;;;;3.00;1.40;;;;;;;17.86;80.75;94001.53;10422577;28;20117;-72
2021/05/20 13:45:44;;;;;;;7.63;1.85;;;;;;;17.93;85.26;93999.88;10425903;28;20033;-72
2021/05/20 13:50:48;;;;;;;4.03;1.77;;;;;;;17.82;75.91;93996.00;10404672;28;20082;-71
2021/05/20 13:55:51;;;;;;;4.57;1.42;;;;;;;17.50;82.72;93995.69;10412699;28;20063;-72
2021/05/20 14:00:55;;;;;;;3.33;1.50;;;;;;;17.21;76.96;94002.03;10413527;28;20034;-71
2021/05/20 14:05:56;;;;;;;4.90;1.67;;;;;;;17.04;79.37;94001.03;10426481;28;20068;-71
2021/05/20 14:10:56;;;;;;;3.27;1.30;;;;;;;16.80;86.47;94015.25;10419332;28;20133;-71
2021/05/20 14:15:56;;;;;;;6.37;2.13;;;;;;;16.97;86.80;94016.25;10438671;28;20034;-72
2021/05/20 14:20:57;;;;;;;6.33;2.43;;;;;;;16.83;86.06;94036.31;10403859;28;20292;-71
2021/05/20 14:25:57;;;;;;;3.80;2.10;;;;;;;17.03;87.12;94029.31;10425255;28;20049;-72
2021/05/20 14:30:57;;;;;;;4.60;2.03;;;;;;;16.78;86.29;94036.50;10403932;28;20785;-71
2021/05/20 14:35:58;;;;;;;4.93;2.30;;;;;;;16.73;92.92;94053.75;10403906;28;20282;-72
2021/05/20 14:40:58;;;;;;;4.15;1.95;;;;;;;16.42;92.63;94067.66;10403236;28;20408;-72
2021/05/20 14:45:59;;;;;;;4.57;1.83;;;;;;;16.03;86.61;94075.78;10402320;28;20037;-72
2021/05/20 14:51:07;;;;;;;7.65;1.70;;;;;;;15.84;86.52;94092.41;10403143;28;20090;-72
2021/05/20 14:56:19;;;;;;;3.03;1.90;;;;;;;15.33;94.57;94092.09;10403324;28;20032;-71
2021/05/20 15:06:39;;;;;;;8.63;1.35;;;;;;;14.73;89.29;94088.22;10409863;28;20029;-71
2021/05/20 15:12:27;;;;;;;0.90;0.80;;;;;;;14.51;96.20;94089.09;10409365;28;20038;-71
2021/05/20 15:17:05;;;;;;;2.38;1.10;;;;;;;14.67;97.86;94081.38;10401973;28;20459;-71
2021/05/20 15:22:06;;;;;;;1.08;0.82;;;;;;;14.55;100.00;94075.75;10418596;28;20036;-71
2021/05/20 15:27:06;;;;;;;1.70;0.90;;;;;;;14.16;100.00;94081.69;10408290;28;20497;-71
2021/05/20 15:32:07;;;;;;;1.83;1.30;;;;;;;14.23;98.72;94089.31;10408910;28;20041;-71
2021/05/20 15:37:10;;;;;;;3.38;1.30;;;;;;;14.33;100.00;94090.94;10414370;28;20033;-72
2021/05/20 15:42:11;;;;;;;1.73;1.02;;;;;;;14.38;98.67;94098.91;10428440;28;20037;-71
2021/05/20 15:52:36;;;;;;;1.77;0.77;;;;;;;14.89;91.40;94095.91;10432613;28;20045;-72
2021/05/20 15:57:37;;;;;;;4.80;1.30;;;;;;;15.14;93.64;94108.69;10449287;28;20592;-72
2021/05/20 16:02:38;;;;;;;1.48;0.80;;;;;;;15.20;86.14;94107.38;10447812;28;20163;-72
2021/05/20 16:18:01;;;;;;;;;;;;;;;14.76;100.00;94146.31;10432697;28;20156;-72
2021/05/20 16:23:13;;;;;;;2.83;1.13;;;;;;;14.74;100.00;94156.66;10405835;28;19909;-72
2021/05/20 16:38:33;;;;;;;9.23;1.75;;;;;;;13.67;100.00;94175.28;10442471;28;20032;-71
2021/05/20 16:43:33;;;;;;;1.20;1.10;;;;;;;13.26;100.00;94174.28;10431050;28;20559;-72
2021/05/20 16:48:34;;;;;;;1.50;1.20;;;;;;;12.80;100.00;94191.44;10439034;28;20291;-71
2021/05/20 16:53:35;;;;;;;4.80;1.50;;;;;;;12.94;100.00;94191.44;10440311;28;20310;-71
2021/05/20 16:58:47;;;;;;;5.30;0.82;;;;;;;12.71;100.00;94202.13;10440488;28;20292;-73
2021/05/20 17:03:47;;;;;;;2.38;1.17;;;;;;;12.74;100.00;94209.63;10438557;28;20111;-71
2021/05/20 17:08:48;;;;;;;1.50;0.90;;;;;;;12.59;100.00;94204.53;10441598;28;20021;-72
2021/05/20 17:13:50;;;;;;;1.42;0.63;;;;;;;12.47;100.00;94216.59;10439740;28;20020;-72
2021/05/20 17:18:50;;;;;;;4.55;1.17;;;;;;;12.35;100.00;94234.31;10435335;28;20040;-72
2021/05/20 17:23:51;;;;;;;2.37;0.80;;;;;;;12.31;100.00;94234.13;10440388;28;20048;-73
2021/05/20 17:28:51;;;;;;;1.10;0.50;;;;;;;12.06;100.00;94241.53;10446056;28;20063;-72
2021/05/20 17:33:52;;;;;;;1.10;0.67;;;;;;;11.63;100.00;94242.41;10445629;28;20025;-72
2021/05/20 17:38:54;;;;;;;3.70;1.10;;;;;;;11.46;100.00;94242.16;10444028;28;20891;-72
2021/05/20 17:43:55;;;;;;;1.13;0.77;;;;;;;11.26;100.00;94245.91;10445862;28;20040;-72
2021/05/20 17:48:55;;;;;;;1.25;1.15;;;;;;;11.32;100.00;94244.75;10427539;28;20037;-72
2021/05/20 17:53:56;;;;;;;1.20;1.03;;;;;;;11.16;100.00;94249.53;10403924;28;20040;-73
2021/05/20 17:58:56;;;;;;;2.67;1.23;;;;;;;11.11;100.00;94249.59;10404356;28;20295;-72
2021/05/20 18:03:57;;;;;;;1.97;1.20;;;;;;;11.07;100.00;94259.34;10403853;28;20048;-72
2021/05/20 18:09:00;;;;;;;1.52;1.40;;;;;;;10.98;100.00;94245.72;10403863;28;20276;-72
2021/05/20 18:24:27;;;;;;;2.22;1.55;;;;;;;11.07;100.00;94273.56;10409229;28;20057;-72
2021/05/20 18:29:28;;;;;;;2.83;1.52;;;;;;;11.20;100.00;94288.19;10444725;28;20462;-72
2021/05/20 18:34:29;;;;;;;1.92;1.65;;;;;;;11.40;100.00;94297.94;10444719;28;20040;-72
2021/05/20 18:39:36;;;;;;;6.35;2.30;;;;;;;11.42;100.00;94308.41;10436326;28;20025;-72
2021/05/20 18:44:46;;;;;;;4.20;1.45;;;;;;;11.43;100.00;94318.88;10424222;28;20088;-72
2021/05/20 18:49:46;;;;;;;3.55;1.55;;;;;;;10.97;100.00;94324.78;10411209;28;20033;-72
2021/05/20 18:54:52;;;;;;;2.03;1.42;;;;;;;11.02;100.00;94337.38;10450046;28;20079;-72
2021/05/20 18:59:52;;;;;;;1.38;1.20;;;;;;;11.02;100.00;94348.91;10464540;28;20032;-71
2021/05/20 19:04:54;;;;;;;3.97;1.20;;;;;;;10.50;100.00;94359.34;10452146;28;20448;-72
2021/05/20 19:09:55;;;;;;;1.60;1.30;;;;;;;10.17;100.00;94375.16;10451208;28;20111;-73
2021/05/20 19:14:55;;;;;;;2.07;1.70;;;;;;;10.11;100.00;94378.16;10450914;28;20028;-71
2021/05/20 19:19:57;;;;;;;2.70;1.63;;;;;;;10.17;100.00;94385.91;10451394;28;20021;-73
2021/05/20 19:24:58;;;;;;;2.65;2.17;;;;;;;10.23;100.00;94394.72;10450196;28;20361;-73
2021/05/20 19:29:59;;;;;;;3.45;1.50;;;;;;;10.54;100.00;94402.59;10425181;28;20025;-73
2021/05/20 19:34:59;;;;;;;2.17;1.60;;;;;;;10.63;100.00;94397.41;10409308;28;20040;-73
2021/05/20 19:40:00;;;;;;;5.97;1.70;;;;;;;10.42;100.00;94395.69;10407468;28;20540;-72
2021/05/20 19:45:00;;;;;;;6.38;1.80;;;;;;;10.53;100.00;94398.28;10408816;28;20113;-70
2021/05/20 19:50:07;;;;;;;2.53;2.03;;;;;;;10.64;100.00;94399.03;10408174;28;20029;-73
2021/05/20 20:00:34;;;;;;;6.03;1.70;;;;;;;10.19;100.00;94407.13;10420570;28;20112;-71
2021/05/20 20:05:45;;;;;;;1.40;1.30;;;;;;;10.36;100.00;94410.22;10447578;28;20466;-71
2021/05/20 20:10:46;;;;;;;1.42;1.33;;;;;;;10.46;100.00;94408.56;10432644;28;20798;-71
2021/05/20 20:15:46;;;;;;;3.63;1.03;;;;;;;10.34;100.00;94412.41;10431836;28;20021;-72
2021/05/20 20:20:58;;;;;;;1.17;1.07;;;;;;;10.43;100.00;94412.59;10407169;28;20288;-71
2021/05/20 20:31:05;;;;;;;2.95;1.50;;;;;;;10.01;100.00;94414.72;10406692;28;20029;-71
2021/05/20 20:36:19;;;;;;;1.23;1.13;;;;;;;10.10;100.00;94414.94;10406585;28;20033;-71
2021/05/20 20:41:19;;;;;;;1.73;1.42;;;;;;;10.11;100.00;94408.50;10405514;28;20033;-71
2021/05/20 20:46:21;;;;;;;5.80;1.15;;;;;;;9.97;100.00;94408.31;10410794;28;20029;-72
2021/05/20 20:51:22;;;;;;;1.63;1.17;;;;;;;9.70;100.00;94412.19;10449023;28;20119;-77
2021/05/20 20:56:26;;;;;;;1.98;1.30;;;;;;;9.54;100.00;94408.78;10447220;28;20033;-77
2021/05/20 21:01:27;;;;;;;2.03;1.58;;;;;;;9.62;100.00;94412.75;10447179;28;20035;-76
2021/05/20 21:06:27;;;;;;;1.33;1.23;;;;;;;9.92;100.00;94402.94;10424726;28;20393;-76
2021/05/20 21:11:28;;;;;;;2.00;1.50;;;;;;;9.87;100.00;94411.84;10404904;28;20279;-77
2021/05/20 21:16:29;;;;;;;1.40;1.23;;;;;;;9.66;100.00;94411.13;10405970;28;20109;-77
2021/05/20 21:21:29;;;;;;;1.80;1.70;;;;;;;9.82;100.00;94411.06;10417827;28;20040;-76
2021/05/20 21:26:30;;;;;;;1.90;1.80;;;;;;;9.51;100.00;94427.28;10409289;28;20046;-76
2021/05/20 21:31:30;;;;;;;1.93;1.70;;;;;;;9.46;100.00;94417.41;10415334;28;20280;-77
2021/05/20 21:36:31;;;;;;;5.57;2.17;;;;;;;9.44;100.00;94416.06;10406391;28;20717;-76
2021/05/20 21:41:31;;;;;;;5.63;1.60;;;;;;;9.38;100.00;94421.44;10416148;28;20041;-76
2021/05/20 21:46:31;;;;;;;2.53;1.93;;;;;;;9.50;100.00;94423.00;10444673;28;20032;-76
2021/05/20 21:51:32;;;;;;;2.37;2.13;;;;;;;9.55;100.00;94414.94;10446473;28;20111;-76
2021/05/20 21:56:32;;;;;;;3.05;1.88;;;;;;;9.53;100.00;94409.84;10445770;28;20279;-77
2021/05/20 22:01:32;;;;;;;5.03;1.63;;;;;;;9.60;100.00;94412.25;10445208;28;20538;-77
2021/05/20 22:06:33;;;;;;;1.67;1.57;;;;;;;9.65;100.00;94408.72;10446350;28;20037;-77
2021/05/20 22:11:43;;;;;;;1.77;1.67;;;;;;;9.73;100.00;94419.69;10443810;28;20095;-77
2021/05/20 22:16:43;;;;;;;3.00;1.90;;;;;;;9.75;100.00;94412.19;10453249;28;20057;-76
2021/05/20 22:21:44;;;;;;;2.15;1.95;;;;;;;9.80;100.00;94416.72;10452560;28;20115;-77
2021/05/20 22:36:51;;;;;;;2.28;2.00;;;;;;;9.84;100.00;94422.34;10453927;28;20276;-76
2021/05/20 22:41:53;;;;;;;3.33;1.53;;;;;;;9.67;100.00;94420.81;10453940;28;20041;-78
2021/05/20 22:46:53;;;;;;;2.38;1.65;;;;;;;9.92;100.00;94425.25;10453053;28;20086;-78
2021/05/20 22:51:54;;;;;;;1.70;1.60;;;;;;;9.87;100.00;94435.22;10453261;28;20111;-78
2021/05/20 22:56:55;;;;;;;2.70;1.60;;;;;;;9.94;100.00;94419.59;10453194;28;20284;-77
2021/05/20 23:01:55;;;;;;;2.33;1.92;;;;;;;9.85;100.00;94432.81;10451380;28;20025;-78
2021/05/20 23:06:56;;;;;;;2.03;1.60;;;;;;;9.93;100.00;94428.72;10450993;28;20032;-77
2021/05/20 23:11:56;;;;;;;2.35;2.15;;;;;;;9.83;100.00;94420.72;10450846;28;20025;-77
2021/05/20 23:16:57;;;;;;;1.92;1.70;;;;;;;9.97;100.00;94426.31;10452285;28;20697;-77
2021/05/20 23:21:57;;;;;;;2.20;2.00;;;;;;;9.92;100.00;94425.25;10451268;28;20025;-76
2021/05/20 23:26:57;;;;;;;3.67;2.20;;;;;;;9.85;100.00;94421.25;10451263;28;20055;-77
2021/05/20 23:32:02;;;;;;;1.80;1.60;;;;;;;9.86;100.00;94414.81;10451483;28;20041;-77
2021/05/20 23:37:02;;;;;;;2.22;1.80;;;;;;;9.99;100.00;94422.25;10450440;28;20833;-79
2021/05/20 23:42:03;;;;;;;2.40;1.93;;;;;;;9.94;100.00;94414.22;10436804;28;20063;-77
2021/05/20 23:47:04;;;;;;;2.97;2.25;;;;;;;9.67;100.00;94420.81;10408435;28;20025;-77
2021/05/20 23:52:04;;;;;;;2.00;1.80;;;;;;;9.82;100.00;94411.06;10409308;28;20044;-77
2021/05/20 23:57:05;;;;;;;3.60;2.30;;;;;;;9.84;100.00;94409.72;10407274;28;20703;-76
